Time;durP1;ratioP1;P1;durP2;ratioP2;P2;SDS_P1;SDS_P2;PMS_P1;PMS_P2;Temp;Humidity;BMP_temperature;BMP_pressure;BME280_temperature;BME280_humidity;BME280_pressure;Samples;Min_cycle;Max_cycle;Signal;HPM_P1;HPM_P2
2022/04/30 00:00:58;;;;;;;4.47;1.55;;;;;;;;;;5044204;28;20041;-75
2022/04/30 00:03:28;;;;;;;5.05;1.80;;;;;;;;;;5029289;28;20035;-75
2022/04/30 00:05:54;;;;;;;4.53;1.42;;;;;;;;;;5031005;28;20497;-75
2022/04/30 00:08:20;;;;;;;4.28;1.52;;;;;;;;;;5049157;28;20036;-75
2022/04/30 00:10:48;;;;;;;5.18;1.65;;;;;;;;;;5048667;28;20044;-75
2022/04/30 00:13:15;;;;;;;5.35;1.90;;;;;;;;;;5044147;28;20064;-75
2022/04/30 00:15:41;;;;;;;4.80;1.63;;;;;;;;;;5042496;28;20036;-74
2022/04/30 00:18:08;;;;;;;4.45;1.40;;;;;;;;;;5048777;28;20079;-75
2022/04/30 00:20:36;;;;;;;5.32;1.73;;;;;;;;;;5052274;28;20025;-74
2022/04/30 00:23:02;;;;;;;5.72;1.70;;;;;;;;;;5039383;28;20490;-75
2022/04/30 00:25:28;;;;;;;6.38;1.60;;;;;;;;;;5046834;28;20032;-75
2022/04/30 00:27:54;;;;;;;5.35;1.70;;;;;;;;;;5029029;28;20030;-74
2022/04/30 00:30:20;;;;;;;6.38;1.70;;;;;;;;;;5030557;28;20125;-75
2022/04/30 00:32:48;;;;;;;4.10;1.50;;;;;;;;;;5043264;28;20096;-75
2022/04/30 00:35:14;;;;;;;7.13;1.52;;;;;;;;;;5028731;28;20410;-75
2022/04/30 00:37:40;;;;;;;6.38;2.03;;;;;;;;;;5049930;28;20048;-75
2022/04/30 00:40:06;;;;;;;5.15;1.50;;;;;;;;;;5052679;28;20459;-75
2022/04/30 00:42:33;;;;;;;4.57;1.50;;;;;;;;;;5052320;28;20041;-75
2022/04/30 00:44:59;;;;;;;5.32;1.50;;;;;;;;;;5045014;28;20098;-75
2022/04/30 00:47:26;;;;;;;4.72;1.80;;;;;;;;;;5052150;28;20044;-75
2022/04/30 00:49:53;;;;;;;6.20;1.80;;;;;;;;;;5033849;28;20455;-75
2022/04/30 00:52:20;;;;;;;6.35;2.40;;;;;;;;;;5035499;28;20029;-75
2022/04/30 00:54:49;;;;;;;7.13;2.63;;;;;;;;;;5048601;28;20412;-75
2022/04/30 00:57:22;;;;;;;7.93;2.72;;;;;;;;;;5040007;28;20048;-75
2022/04/30 00:59:51;;;;;;;8.43;2.97;;;;;;;;;;5047629;28;20033;-75
2022/04/30 01:02:18;;;;;;;6.78;2.65;;;;;;;;;;5052276;28;20215;-75
2022/04/30 01:04:45;;;;;;;9.95;2.95;;;;;;;;;;5052413;28;20029;-75
2022/04/30 01:07:12;;;;;;;10.15;3.13;;;;;;;;;;5052373;28;20033;-75
2022/04/30 01:09:43;;;;;;;8.38;2.97;;;;;;;;;;5051700;28;20029;-75
2022/04/30 01:12:10;;;;;;;6.60;2.80;;;;;;;;;;5052389;28;20057;-75
2022/04/30 01:14:38;;;;;;;6.88;2.55;;;;;;;;;;5050212;28;20029;-75
2022/04/30 01:17:05;;;;;;;8.45;2.80;;;;;;;;;;5047748;28;20045;-75
2022/04/30 01:19:32;;;;;;;8.50;2.40;;;;;;;;;;5039424;28;20677;-75
2022/04/30 01:21:59;;;;;;;7.18;2.53;;;;;;;;;;5050638;28;20064;-75
2022/04/30 01:24:26;;;;;;;7.47;2.70;;;;;;;;;;5052177;28;20021;-75
2022/04/30 01:26:52;;;;;;;6.15;2.28;;;;;;;;;;5050101;28;20037;-75
2022/04/30 01:29:19;;;;;;;8.57;2.97;;;;;;;;;;5037191;28;20037;-75
2022/04/30 01:37:25;;;;;;;5.22;2.28;;;;;;;;;;5046635;28;20092;-75
2022/04/30 01:40:03;;;;;;;4.93;2.50;;;;;;;;;;5052129;28;20029;-75
2022/04/30 01:42:30;;;;;;;7.80;2.78;;;;;;;;;;5051206;28;20071;-75
2022/04/30 01:44:58;;;;;;;4.78;2.78;;;;;;;;;;5045658;28;20076;-75
2022/04/30 01:47:24;;;;;;;6.40;2.47;;;;;;;;;;5042147;28;20104;-75
2022/04/30 01:49:50;;;;;;;4.88;2.40;;;;;;;;;;5050168;28;20060;-75
2022/04/30 01:52:17;;;;;;;7.95;2.88;;;;;;;;;;5051538;28;20033;-75
2022/04/30 01:54:43;;;;;;;8.13;2.35;;;;;;;;;;5050575;28;20036;-75
2022/04/30 01:57:10;;;;;;;7.53;2.88;;;;;;;;;;5031760;28;20034;-75
2022/04/30 01:59:36;;;;;;;5.45;2.63;;;;;;;;;;5044780;28;20036;-75
2022/04/30 02:02:03;;;;;;;4.93;1.83;;;;;;;;;;5051011;28;20044;-75
2022/04/30 02:04:29;;;;;;;4.97;2.10;;;;;;;;;;5032391;28;20025;-75
2022/04/30 02:06:56;;;;;;;7.70;1.90;;;;;;;;;;5043028;28;20033;-75
2022/04/30 02:09:22;;;;;;;5.18;2.33;;;;;;;;;;5043859;28;20056;-75
2022/04/30 02:11:49;;;;;;;5.55;2.00;;;;;;;;;;5051079;28;20029;-75
2022/04/30 02:14:15;;;;;;;4.40;1.77;;;;;;;;;;5050358;28;20264;-75
2022/04/30 02:16:42;;;;;;;6.65;2.60;;;;;;;;;;5050791;28;20029;-75
2022/04/30 02:19:09;;;;;;;9.80;2.58;;;;;;;;;;5051023;28;20512;-75
2022/04/30 02:21:36;;;;;;;7.03;2.88;;;;;;;;;;5069401;28;20481;-75
2022/04/30 02:24:03;;;;;;;9.82;2.92;;;;;;;;;;5071265;28;20462;-75
2022/04/30 02:26:29;;;;;;;7.13;3.08;;;;;;;;;;5054158;28;20083;-75
2022/04/30 02:28:57;;;;;;;9.15;2.35;;;;;;;;;;5034120;28;20045;-75
2022/04/30 02:31:24;;;;;;;8.98;2.47;;;;;;;;;;5049219;28;20064;-75
2022/04/30 02:33:50;;;;;;;6.63;2.70;;;;;;;;;;5050947;28;20029;-75
2022/04/30 02:36:16;;;;;;;7.07;2.42;;;;;;;;;;5050123;28;20029;-75
2022/04/30 02:38:42;;;;;;;7.75;2.53;;;;;;;;;;5050531;28;20037;-75
2022/04/30 02:41:09;;;;;;;6.60;2.85;;;;;;;;;;5049816;28;20136;-74
2022/04/30 02:43:35;;;;;;;6.60;2.63;;;;;;;;;;5048959;28;20108;-74
2022/04/30 02:46:01;;;;;;;7.63;3.08;;;;;;;;;;5049781;28;20060;-75
2022/04/30 02:48:27;;;;;;;5.25;2.00;;;;;;;;;;5050510;28;20040;-76
2022/04/30 02:50:58;;;;;;;9.02;2.95;;;;;;;;;;5051293;28;20100;-74
2022/04/30 02:53:24;;;;;;;6.78;3.50;;;;;;;;;;5049474;28;20056;-75
2022/04/30 02:55:50;;;;;;;8.77;3.28;;;;;;;;;;5050437;28;20112;-75
2022/04/30 03:01:01;;;;;;;8.68;2.35;;;;;;;;;;5049689;28;20576;-75
2022/04/30 03:03:29;;;;;;;8.27;2.90;;;;;;;;;;5028962;28;20034;-75
2022/04/30 03:05:56;;;;;;;11.02;2.75;;;;;;;;;;5038568;28;20445;-75
2022/04/30 03:08:23;;;;;;;6.55;2.95;;;;;;;;;;5049972;28;20027;-74
2022/04/30 03:10:50;;;;;;;5.82;2.70;;;;;;;;;;5047596;28;20065;-75
2022/04/30 03:13:20;;;;;;;7.57;2.55;;;;;;;;;;5042293;28;20029;-75
2022/04/30 03:15:47;;;;;;;5.88;3.00;;;;;;;;;;5045489;28;20037;-75
2022/04/30 03:23:43;;;;;;;5.07;2.45;;;;;;;;;;5030522;28;20074;-75
2022/04/30 03:26:10;;;;;;;7.40;2.50;;;;;;;;;;5033172;28;20043;-75
2022/04/30 03:28:40;;;;;;;6.72;2.70;;;;;;;;;;5044860;28;20808;-75
2022/04/30 03:31:07;;;;;;;7.47;2.80;;;;;;;;;;5036197;28;20037;-74
2022/04/30 03:33:33;;;;;;;6.80;3.10;;;;;;;;;;5031581;28;20033;-75
2022/04/30 03:35:59;;;;;;;8.38;2.70;;;;;;;;;;5043539;28;20033;-75
2022/04/30 03:38:25;;;;;;;7.75;2.85;;;;;;;;;;5048525;28;20498;-75
2022/04/30 03:40:51;;;;;;;6.40;3.03;;;;;;;;;;5048598;28;20035;-75
2022/04/30 03:43:18;;;;;;;5.50;2.75;;;;;;;;;;5046026;28;20780;-75
2022/04/30 03:45:44;;;;;;;9.63;3.17;;;;;;;;;;5049540;28;20099;-75
2022/04/30 03:48:12;;;;;;;6.68;2.95;;;;;;;;;;5039108;28;20029;-75
2022/04/30 03:50:38;;;;;;;6.63;2.60;;;;;;;;;;5029743;28;20022;-75
2022/04/30 03:53:04;;;;;;;7.90;2.20;;;;;;;;;;5045585;28;20116;-75
2022/04/30 03:55:30;;;;;;;5.22;2.13;;;;;;;;;;5049157;28;20071;-76
2022/04/30 03:57:56;;;;;;;8.38;2.05;;;;;;;;;;5049260;28;20466;-75
2022/04/30 04:00:23;;;;;;;3.58;1.50;;;;;;;;;;5046821;28;20037;-75
2022/04/30 04:02:49;;;;;;;6.40;1.80;;;;;;;;;;5049005;28;20409;-74
2022/04/30 04:05:17;;;;;;;7.00;2.72;;;;;;;;;;5049073;28;20041;-75
2022/04/30 04:07:44;;;;;;;6.03;2.40;;;;;;;;;;5048696;28;20120;-75
2022/04/30 04:10:10;;;;;;;7.75;2.00;;;;;;;;;;5049010;28;20083;-74
2022/04/30 04:12:39;;;;;;;7.55;1.95;;;;;;;;;;5031754;28;20034;-75
2022/04/30 04:17:51;;;;;;;7.45;1.88;;;;;;;;;;5052905;28;20124;-75
2022/04/30 04:20:24;;;;;;;6.18;1.88;;;;;;;;;;5053141;28;20040;-75
2022/04/30 04:22:50;;;;;;;5.85;2.08;;;;;;;;;;5053202;28;20060;-75
2022/04/30 04:28:01;;;;;;;5.07;2.20;;;;;;;;;;5051780;28;20043;-75
2022/04/30 04:30:28;;;;;;;7.03;2.47;;;;;;;;;;5052089;28;20029;-75
2022/04/30 04:32:55;;;;;;;6.15;2.42;;;;;;;;;;5053005;28;20033;-75
2022/04/30 04:35:21;;;;;;;5.38;2.03;;;;;;;;;;5052272;28;20037;-75
2022/04/30 04:37:47;;;;;;;7.78;2.55;;;;;;;;;;5034510;28;20025;-75
2022/04/30 04:40:13;;;;;;;7.15;2.75;;;;;;;;;;5046690;28;20409;-74
2022/04/30 04:42:40;;;;;;;6.20;2.15;;;;;;;;;;5053200;28;20800;-74
2022/04/30 04:45:07;;;;;;;7.30;2.95;;;;;;;;;;5048067;28;20055;-75
2022/04/30 04:47:34;;;;;;;5.05;2.05;;;;;;;;;;5042177;28;20112;-75
2022/04/30 04:50:01;;;;;;;7.00;2.42;;;;;;;;;;5052952;28;20037;-75
2022/04/30 04:52:27;;;;;;;9.95;2.60;;;;;;;;;;5049520;28;20041;-75
2022/04/30 04:54:53;;;;;;;8.15;2.75;;;;;;;;;;5052700;28;20083;-75
2022/04/30 04:57:19;;;;;;;6.43;3.55;;;;;;;;;;5052124;28;20082;-75
2022/04/30 04:59:45;;;;;;;7.93;3.38;;;;;;;;;;5052341;28;20044;-75
2022/04/30 05:02:11;;;;;;;6.63;3.17;;;;;;;;;;5050340;28;20086;-75
2022/04/30 05:04:37;;;;;;;7.70;3.10;;;;;;;;;;5052441;28;20033;-74
2022/04/30 05:07:03;;;;;;;16.08;3.28;;;;;;;;;;5051806;28;20107;-75
2022/04/30 05:09:33;;;;;;;9.25;3.20;;;;;;;;;;5052059;28;20106;-75
2022/04/30 05:12:02;;;;;;;7.45;2.80;;;;;;;;;;5057510;28;20036;-75
2022/04/30 05:14:36;;;;;;;7.47;3.13;;;;;;;;;;5054270;28;20094;-75
2022/04/30 05:17:04;;;;;;;8.98;3.15;;;;;;;;;;5039248;28;20133;-75
2022/04/30 05:19:32;;;;;;;9.32;2.80;;;;;;;;;;5039193;28;20036;-75
2022/04/30 05:21:58;;;;;;;9.20;2.88;;;;;;;;;;5037069;28;20637;-75
2022/04/30 05:24:24;;;;;;;14.82;2.75;;;;;;;;;;5052236;28;20116;-74
2022/04/30 05:26:50;;;;;;;16.58;2.53;;;;;;;;;;5051341;28;20036;-75
2022/04/30 05:29:16;;;;;;;10.85;2.95;;;;;;;;;;5041349;28;20040;-75
2022/04/30 05:31:43;;;;;;;7.35;2.53;;;;;;;;;;5013917;28;20040;-75
2022/04/30 05:34:09;;;;;;;5.45;2.47;;;;;;;;;;5051687;28;20029;-75
2022/04/30 05:36:35;;;;;;;5.78;3.03;;;;;;;;;;5051681;28;20066;-74
2022/04/30 05:39:01;;;;;;;9.38;3.33;;;;;;;;;;5050979;28;20040;-75
2022/04/30 05:41:28;;;;;;;8.82;3.20;;;;;;;;;;5051246;28;20786;-75
2022/04/30 05:43:54;;;;;;;8.60;2.90;;;;;;;;;;5050619;28;20029;-75
2022/04/30 05:46:20;;;;;;;10.48;3.35;;;;;;;;;;5047200;28;20037;-75
2022/04/30 05:48:46;;;;;;;8.40;3.72;;;;;;;;;;5038128;28;20083;-75
2022/04/30 05:51:15;;;;;;;10.18;3.97;;;;;;;;;;5050385;28;20029;-75
2022/04/30 05:53:41;;;;;;;8.75;4.05;;;;;;;;;;5054441;28;20025;-75
2022/04/30 05:56:07;;;;;;;11.70;3.88;;;;;;;;;;5054234;28;20037;-74
2022/04/30 05:58:33;;;;;;;12.68;4.43;;;;;;;;;;5049729;28;20474;-74
2022/04/30 06:00:59;;;;;;;7.25;4.63;;;;;;;;;;5050306;28;20378;-76
2022/04/30 06:03:25;;;;;;;9.38;3.80;;;;;;;;;;5048808;28;20025;-76
2022/04/30 06:05:51;;;;;;;13.18;4.60;;;;;;;;;;5050291;28;20037;-76
2022/04/30 06:08:17;;;;;;;8.73;4.93;;;;;;;;;;5050027;28;20716;-76
2022/04/30 06:10:44;;;;;;;7.03;4.45;;;;;;;;;;5050196;28;20036;-76
2022/04/30 06:13:11;;;;;;;7.53;4.38;;;;;;;;;;5048371;28;20025;-77
2022/04/30 06:15:37;;;;;;;11.13;5.28;;;;;;;;;;5047870;28;20036;-74
2022/04/30 06:18:03;;;;;;;10.55;6.00;;;;;;;;;;5047483;28;20021;-76
2022/04/30 06:20:30;;;;;;;6.60;4.30;;;;;;;;;;5051326;28;20037;-76
2022/04/30 06:22:56;;;;;;;12.00;4.15;;;;;;;;;;5050560;28;20039;-76
2022/04/30 06:25:22;;;;;;;6.57;3.60;;;;;;;;;;5052275;28;20501;-76
2022/04/30 06:27:48;;;;;;;6.68;3.35;;;;;;;;;;5031018;28;20035;-76
2022/04/30 06:30:14;;;;;;;7.10;3.40;;;;;;;;;;5050242;28;20037;-76
2022/04/30 06:32:40;;;;;;;6.28;3.25;;;;;;;;;;5056991;28;20021;-77
2022/04/30 06:35:07;;;;;;;7.57;3.40;;;;;;;;;;5034946;28;20038;-76
2022/04/30 06:37:33;;;;;;;9.13;3.30;;;;;;;;;;5046134;28;20022;-76
2022/04/30 06:39:59;;;;;;;8.15;3.20;;;;;;;;;;5061066;28;20478;-76
2022/04/30 06:42:25;;;;;;;5.70;3.53;;;;;;;;;;5047984;28;20040;-76
2022/04/30 06:44:51;;;;;;;8.10;3.45;;;;;;;;;;5064729;28;20091;-76
2022/04/30 06:47:18;;;;;;;7.65;2.88;;;;;;;;;;5063171;28;20061;-76
2022/04/30 06:49:45;;;;;;;7.88;3.25;;;;;;;;;;5050828;28;20037;-76
2022/04/30 06:52:11;;;;;;;7.40;3.17;;;;;;;;;;5049420;28;20033;-76
2022/04/30 06:57:22;;;;;;;8.93;3.22;;;;;;;;;;5050322;28;20040;-76
2022/04/30 06:59:51;;;;;;;7.00;3.03;;;;;;;;;;5056630;28;20079;-76
2022/04/30 07:02:17;;;;;;;5.70;2.90;;;;;;;;;;5064552;28;20041;-76
2022/04/30 07:04:46;;;;;;;8.00;3.08;;;;;;;;;;5054276;28;20119;-76
2022/04/30 07:07:12;;;;;;;8.88;2.88;;;;;;;;;;5060697;28;20039;-76
2022/04/30 07:09:38;;;;;;;7.38;2.78;;;;;;;;;;5048807;28;20037;-76
2022/04/30 07:12:06;;;;;;;4.18;2.35;;;;;;;;;;5049548;28;20040;-76
2022/04/30 07:14:35;;;;;;;6.00;2.28;;;;;;;;;;5048951;28;20039;-77
2022/04/30 07:17:02;;;;;;;7.93;2.50;;;;;;;;;;5049840;28;20104;-76
2022/04/30 07:19:28;;;;;;;5.35;2.15;;;;;;;;;;5053427;28;20037;-76
2022/04/30 07:21:54;;;;;;;10.18;2.95;;;;;;;;;;5058438;28;20040;-77
2022/04/30 07:24:20;;;;;;;6.00;2.33;;;;;;;;;;5046593;28;20039;-77
2022/04/30 07:26:46;;;;;;;4.93;2.05;;;;;;;;;;5047621;28;20139;-77
2022/04/30 07:29:12;;;;;;;5.45;2.65;;;;;;;;;;5048354;28;20481;-75
2022/04/30 07:31:38;;;;;;;6.10;2.72;;;;;;;;;;5049275;28;20687;-76
2022/04/30 07:34:04;;;;;;;7.20;2.13;;;;;;;;;;5048777;28;20138;-77
2022/04/30 07:36:31;;;;;;;5.85;2.60;;;;;;;;;;5045175;28;20478;-77
2022/04/30 07:38:57;;;;;;;9.23;2.60;;;;;;;;;;5037806;28;20033;-76
2022/04/30 07:41:23;;;;;;;6.97;2.38;;;;;;;;;;5049310;28;20032;-77
2022/04/30 07:43:50;;;;;;;7.93;2.65;;;;;;;;;;5048403;28;20025;-76
2022/04/30 07:46:16;;;;;;;5.82;2.67;;;;;;;;;;5056181;28;20060;-76
2022/04/30 07:48:42;;;;;;;6.70;2.88;;;;;;;;;;5048203;28;20052;-76
2022/04/30 07:51:18;;;;;;;7.97;2.58;;;;;;;;;;5048305;28;20029;-77
2022/04/30 07:53:44;;;;;;;8.30;2.20;;;;;;;;;;5051921;28;20047;-77
2022/04/30 07:56:10;;;;;;;10.07;2.80;;;;;;;;;;5054992;28;20037;-76
2022/04/30 07:58:37;;;;;;;6.68;2.33;;;;;;;;;;5055010;28;20021;-76
2022/04/30 08:01:03;;;;;;;5.57;2.58;;;;;;;;;;5049239;28;20040;-77
2022/04/30 08:03:29;;;;;;;5.80;2.80;;;;;;;;;;5036703;28;20040;-76
2022/04/30 08:05:55;;;;;;;5.47;2.22;;;;;;;;;;5029505;28;20037;-77
2022/04/30 08:08:21;;;;;;;7.15;2.65;;;;;;;;;;5050220;28;20037;-76
2022/04/30 08:10:47;;;;;;;7.28;2.80;;;;;;;;;;5066795;28;20029;-76
2022/04/30 08:13:13;;;;;;;5.90;2.33;;;;;;;;;;5064266;28;20040;-76
2022/04/30 08:15:43;;;;;;;6.18;2.28;;;;;;;;;;5050695;28;20036;-76
2022/04/30 08:18:09;;;;;;;9.25;2.40;;;;;;;;;;5048752;28;20021;-76
2022/04/30 08:20:37;;;;;;;7.20;2.78;;;;;;;;;;5060711;28;20525;-76
2022/04/30 08:23:03;;;;;;;7.30;2.75;;;;;;;;;;5053199;28;20073;-77
2022/04/30 08:25:29;;;;;;;6.60;2.35;;;;;;;;;;5048026;28;20470;-77
2022/04/30 08:27:55;;;;;;;6.63;2.35;;;;;;;;;;5039038;28;20043;-76
2022/04/30 08:30:21;;;;;;;7.25;2.40;;;;;;;;;;5041066;28;20156;-76
2022/04/30 08:32:50;;;;;;;8.82;3.25;;;;;;;;;;5040520;28;20024;-76
2022/04/30 08:35:16;;;;;;;7.15;2.80;;;;;;;;;;5056015;28;20045;-76
2022/04/30 08:37:42;;;;;;;6.53;1.80;;;;;;;;;;5049622;28;20029;-76
2022/04/30 08:40:08;;;;;;;8.63;2.20;;;;;;;;;;5037061;28;20037;-76
2022/04/30 08:42:34;;;;;;;6.32;2.28;;;;;;;;;;5032386;28;20784;-76
2022/04/30 08:45:04;;;;;;;11.70;3.13;;;;;;;;;;5042352;28;20056;-76
2022/04/30 08:47:30;;;;;;;8.13;2.42;;;;;;;;;;5047912;28;20033;-76
2022/04/30 08:49:57;;;;;;;4.78;2.03;;;;;;;;;;5041695;28;20066;-77
2022/04/30 08:52:24;;;;;;;5.22;1.90;;;;;;;;;;5053194;28;20802;-77
2022/04/30 08:54:50;;;;;;;4.35;1.77;;;;;;;;;;5045190;28;20493;-77
2022/04/30 08:57:16;;;;;;;10.15;3.20;;;;;;;;;;5045454;28;20127;-76
2022/04/30 08:59:42;;;;;;;5.53;1.83;;;;;;;;;;5044282;28;20052;-76
2022/04/30 09:02:09;;;;;;;9.02;2.40;;;;;;;;;;5062199;28;20037;-76
2022/04/30 09:04:43;;;;;;;6.97;2.15;;;;;;;;;;5061032;28;20040;-77
2022/04/30 09:07:13;;;;;;;4.40;1.50;;;;;;;;;;5047768;28;20864;-76
2022/04/30 09:09:39;;;;;;;8.65;1.52;;;;;;;;;;5055551;28;20092;-77
2022/04/30 09:12:09;;;;;;;9.02;1.52;;;;;;;;;;5060891;28;20111;-76
2022/04/30 09:14:35;;;;;;;5.85;1.70;;;;;;;;;;5047604;28;20452;-76
2022/04/30 09:17:09;;;;;;;6.45;1.60;;;;;;;;;;5051040;28;20033;-77
2022/04/30 09:19:54;;;;;;;5.78;2.00;;;;;;;;;;5035844;28;20095;-76
2022/04/30 09:22:30;;;;;;;7.72;1.83;;;;;;;;;;5051088;28;20060;-76
2022/04/30 09:24:57;;;;;;;7.22;1.40;;;;;;;;;;5053404;28;20068;-76
2022/04/30 09:27:23;;;;;;;9.63;1.65;;;;;;;;;;5039939;28;20045;-76
2022/04/30 09:29:49;;;;;;;5.50;1.80;;;;;;;;;;5046977;28;20033;-76
2022/04/30 09:32:23;;;;;;;3.35;1.20;;;;;;;;;;5042872;28;20158;-76
2022/04/30 09:37:49;;;;;;;4.68;1.48;;;;;;;;;;5031163;28;20446;-76
2022/04/30 09:40:15;;;;;;;9.23;2.35;;;;;;;;;;5031632;28;20037;-76
2022/04/30 09:42:41;;;;;;;5.32;1.55;;;;;;;;;;5038628;28;20040;-77
2022/04/30 09:45:08;;;;;;;7.72;1.42;;;;;;;;;;5048882;28;20785;-76
2022/04/30 09:47:34;;;;;;;7.93;1.38;;;;;;;;;;5050053;28;20075;-76
2022/04/30 09:55:35;;;;;;;5.75;1.30;;;;;;;;;;5049011;28;20723;-76
2022/04/30 09:58:03;;;;;;;8.50;1.60;;;;;;;;;;5042396;28;20033;-75
2022/04/30 10:00:31;;;;;;;6.85;1.30;;;;;;;;;;5044961;28;20163;-76
2022/04/30 10:03:01;;;;;;;5.05;1.27;;;;;;;;;;5050621;28;20597;-76
2022/04/30 10:05:28;;;;;;;5.90;1.25;;;;;;;;;;5041155;28;20671;-76
2022/04/30 10:07:54;;;;;;;7.72;1.33;;;;;;;;;;5049869;28;20029;-76
2022/04/30 10:10:29;;;;;;;8.93;1.15;;;;;;;;;;5044312;28;20064;-76
2022/04/30 10:12:56;;;;;;;11.13;1.60;;;;;;;;;;5057437;28;20029;-75
2022/04/30 10:15:25;;;;;;;8.57;1.77;;;;;;;;;;5043751;28;20032;-75
2022/04/30 10:17:57;;;;;;;7.95;1.27;;;;;;;;;;5045921;28;20551;-75
2022/04/30 10:20:33;;;;;;;7.75;1.85;;;;;;;;;;5050992;28;20033;-75
2022/04/30 10:23:00;;;;;;;7.68;1.30;;;;;;;;;;5052797;28;20048;-75
2022/04/30 10:25:42;;;;;;;7.47;1.58;;;;;;;;;;5049477;28;20814;-75
2022/04/30 10:28:11;;;;;;;9.88;1.90;;;;;;;;;;5049729;28;20032;-75
2022/04/30 10:30:38;;;;;;;8.43;1.45;;;;;;;;;;5048084;28;20144;-76
2022/04/30 10:33:07;;;;;;;11.30;1.60;;;;;;;;;;5051911;28;20044;-76
2022/04/30 10:35:34;;;;;;;9.48;1.67;;;;;;;;;;5052601;28;20067;-76
2022/04/30 10:38:12;;;;;;;6.65;1.42;;;;;;;;;;5047984;28;20156;-75
2022/04/30 10:40:43;;;;;;;4.65;1.08;;;;;;;;;;5044735;28;20037;-76
2022/04/30 10:43:26;;;;;;;10.20;1.52;;;;;;;;;;5034923;28;20164;-76
2022/04/30 10:45:53;;;;;;;7.13;1.70;;;;;;;;;;5043719;28;20128;-75
2022/04/30 10:48:20;;;;;;;9.50;1.70;;;;;;;;;;5045884;28;20520;-75
2022/04/30 10:50:56;;;;;;;8.65;1.70;;;;;;;;;;5041018;28;20048;-76
2022/04/30 10:53:25;;;;;;;5.90;1.33;;;;;;;;;;5039688;28;20415;-76
2022/04/30 10:55:52;;;;;;;13.98;1.85;;;;;;;;;;5039943;28;20484;-76
2022/04/30 10:58:25;;;;;;;7.30;1.40;;;;;;;;;;5042600;28;20106;-76
2022/04/30 11:00:51;;;;;;;4.00;1.23;;;;;;;;;;5026683;28;20037;-75
2022/04/30 11:03:17;;;;;;;7.63;1.42;;;;;;;;;;5035840;28;20667;-75
2022/04/30 11:05:48;;;;;;;8.20;1.60;;;;;;;;;;5043980;28;20732;-76
2022/04/30 11:08:14;;;;;;;6.75;1.10;;;;;;;;;;5023632;28;20033;-76
2022/04/30 11:10:49;;;;;;;7.05;1.58;;;;;;;;;;5040833;28;20124;-76
2022/04/30 11:13:16;;;;;;;7.25;1.63;;;;;;;;;;5044365;28;20118;-76
2022/04/30 11:15:42;;;;;;;9.20;1.25;;;;;;;;;;5041159;28;20029;-75
2022/04/30 11:18:08;;;;;;;10.13;1.40;;;;;;;;;;5045390;28;20040;-75
2022/04/30 11:20:34;;;;;;;6.05;1.30;;;;;;;;;;5043922;28;20041;-76
2022/04/30 11:23:00;;;;;;;8.05;1.35;;;;;;;;;;5047562;28;20029;-76
2022/04/30 11:25:36;;;;;;;7.72;1.55;;;;;;;;;;5035788;28;20033;-76
2022/04/30 11:28:09;;;;;;;6.28;1.33;;;;;;;;;;5049117;28;20041;-76
2022/04/30 11:30:38;;;;;;;5.50;0.95;;;;;;;;;;5043506;28;20036;-76
2022/04/30 11:33:05;;;;;;;7.90;0.98;;;;;;;;;;5045994;28;20071;-76
2022/04/30 11:35:31;;;;;;;6.32;1.42;;;;;;;;;;5047337;28;20033;-76
2022/04/30 11:37:57;;;;;;;8.30;1.20;;;;;;;;;;5039597;28;20025;-76
2022/04/30 11:40:25;;;;;;;6.85;1.13;;;;;;;;;;5050870;28;20455;-76
2022/04/30 11:43:01;;;;;;;7.97;1.02;;;;;;;;;;5048069;28;20041;-76
2022/04/30 11:45:29;;;;;;;9.82;1.08;;;;;;;;;;5035245;28;20149;-76
2022/04/30 11:47:56;;;;;;;7.20;1.20;;;;;;;;;;5046103;28;20036;-76
2022/04/30 11:50:22;;;;;;;10.25;1.20;;;;;;;;;;5030724;28;20037;-76
2022/04/30 11:52:48;;;;;;;7.03;1.27;;;;;;;;;;5043741;28;20083;-76
2022/04/30 11:55:15;;;;;;;8.18;1.10;;;;;;;;;;5048581;28;20056;-76
2022/04/30 11:57:42;;;;;;;6.78;1.15;;;;;;;;;;5045087;28;20029;-76
2022/04/30 12:00:09;;;;;;;9.60;1.35;;;;;;;;;;5042984;28;20044;-76
2022/04/30 12:02:39;;;;;;;7.50;0.80;;;;;;;;;;5044897;28;20037;-76
2022/04/30 12:05:05;;;;;;;9.18;1.45;;;;;;;;;;5047770;28;20171;-76
2022/04/30 12:07:41;;;;;;;5.53;1.23;;;;;;;;;;5045944;28;20040;-76
2022/04/30 12:10:19;;;;;;;4.32;0.90;;;;;;;;;;5036256;28;20079;-76
2022/04/30 12:12:45;;;;;;;7.72;1.02;;;;;;;;;;5038692;28;20105;-76
2022/04/30 12:15:19;;;;;;;8.73;1.27;;;;;;;;;;5043127;28;20033;-76
2022/04/30 12:17:45;;;;;;;9.05;1.13;;;;;;;;;;5042573;28;20098;-74
2022/04/30 12:25:48;;;;;;;6.38;1.02;;;;;;;;;;5047087;28;20183;-76
2022/04/30 12:28:15;;;;;;;5.18;1.00;;;;;;;;;;5046802;28;20116;-75
2022/04/30 12:30:50;;;;;;;8.75;1.02;;;;;;;;;;5049337;28;20553;-76
2022/04/30 12:33:17;;;;;;;8.00;1.17;;;;;;;;;;5044856;28;20034;-76
2022/04/30 12:35:43;;;;;;;5.68;1.08;;;;;;;;;;5047785;28;20029;-76
2022/04/30 12:38:11;;;;;;;7.82;1.00;;;;;;;;;;5048401;28;20056;-76
2022/04/30 12:40:39;;;;;;;9.90;1.00;;;;;;;;;;5050917;28;20074;-76
2022/04/30 12:43:05;;;;;;;3.13;0.65;;;;;;;;;;5051273;28;20040;-76
2022/04/30 12:45:32;;;;;;;8.38;1.23;;;;;;;;;;5057748;28;20052;-76
2022/04/30 12:47:58;;;;;;;3.35;0.77;;;;;;;;;;5052129;28;20028;-76
2022/04/30 12:50:25;;;;;;;6.57;1.13;;;;;;;;;;5052734;28;20048;-76
2022/04/30 12:52:51;;;;;;;7.10;0.90;;;;;;;;;;5045099;28;20025;-76
2022/04/30 12:55:20;;;;;;;4.85;1.20;;;;;;;;;;5046364;28;20132;-76
2022/04/30 12:57:47;;;;;;;7.55;0.90;;;;;;;;;;5053410;28;20075;-76
2022/04/30 13:00:14;;;;;;;4.47;0.90;;;;;;;;;;5055923;28;20042;-76
2022/04/30 13:02:40;;;;;;;6.85;1.25;;;;;;;;;;5051480;28;20231;-76
2022/04/30 13:05:10;;;;;;;10.70;1.13;;;;;;;;;;5055487;28;20041;-76
2022/04/30 13:07:37;;;;;;;6.97;1.30;;;;;;;;;;5047239;28;20035;-76
2022/04/30 13:15:34;;;;;;;5.30;1.00;;;;;;;;;;5051530;28;20048;-76
2022/04/30 13:18:00;;;;;;;5.30;0.93;;;;;;;;;;5047471;28;20043;-76
2022/04/30 13:20:27;;;;;;;9.18;1.23;;;;;;;;;;5046605;28;20037;-76
2022/04/30 13:22:56;;;;;;;6.57;0.90;;;;;;;;;;5043975;28;20037;-76
2022/04/30 13:25:22;;;;;;;3.90;0.80;;;;;;;;;;5050373;28;20044;-76
2022/04/30 13:27:49;;;;;;;7.30;1.33;;;;;;;;;;5046975;28;20037;-76
2022/04/30 13:30:15;;;;;;;5.70;1.13;;;;;;;;;;5050437;28;20069;-76
2022/04/30 13:32:48;;;;;;;7.85;1.20;;;;;;;;;;5048027;28;20159;-76
2022/04/30 13:35:14;;;;;;;8.30;1.27;;;;;;;;;;5050407;28;20033;-76
2022/04/30 13:37:41;;;;;;;6.40;1.02;;;;;;;;;;5047329;28;20021;-76
2022/04/30 13:40:08;;;;;;;4.15;1.25;;;;;;;;;;5051005;28;20041;-76
2022/04/30 13:42:34;;;;;;;5.90;1.33;;;;;;;;;;5049902;28;20104;-76
2022/04/30 13:45:00;;;;;;;4.05;0.90;;;;;;;;;;5044053;28;20053;-76
2022/04/30 13:47:26;;;;;;;4.10;1.10;;;;;;;;;;5043770;28;20124;-76
2022/04/30 13:49:52;;;;;;;6.75;1.95;;;;;;;;;;5026344;28;20042;-76
2022/04/30 13:52:18;;;;;;;7.10;0.90;;;;;;;;;;5047457;28;20409;-76
2022/04/30 13:54:44;;;;;;;5.10;1.15;;;;;;;;;;5053249;28;20032;-76
2022/04/30 13:57:10;;;;;;;4.70;1.00;;;;;;;;;;5023280;28;20034;-76
2022/04/30 13:59:36;;;;;;;5.18;1.17;;;;;;;;;;5044434;28;20428;-76
2022/04/30 14:02:04;;;;;;;5.45;1.30;;;;;;;;;;5051139;28;20061;-76
2022/04/30 14:04:33;;;;;;;6.35;1.20;;;;;;;;;;5044192;28;20115;-76
2022/04/30 14:06:59;;;;;;;8.75;0.90;;;;;;;;;;5049828;28;20056;-76
2022/04/30 14:09:26;;;;;;;4.55;1.10;;;;;;;;;;5045681;28;20029;-76
2022/04/30 14:11:52;;;;;;;5.43;1.20;;;;;;;;;;5055455;28;20033;-76
2022/04/30 14:18:15;;;;;;;4.85;1.10;;;;;;;;;;5053690;28;20039;-76
2022/04/30 14:19:53;;;;;;;3.88;1.20;;;;;;;;;;5045274;28;20032;-76
2022/04/30 14:22:22;;;;;;;6.03;1.00;;;;;;;;;;5045935;28;20032;-76
2022/04/30 14:24:48;;;;;;;3.67;0.98;;;;;;;;;;5056088;28;20059;-76
2022/04/30 14:27:14;;;;;;;7.30;1.00;;;;;;;;;;5042309;28;20037;-76
2022/04/30 14:29:42;;;;;;;6.68;1.15;;;;;;;;;;5032427;28;20044;-76
2022/04/30 14:32:09;;;;;;;2.72;0.75;;;;;;;;;;5045056;28;20040;-76
2022/04/30 14:34:36;;;;;;;8.55;1.67;;;;;;;;;;5047131;28;20061;-76
2022/04/30 14:37:02;;;;;;;4.40;1.02;;;;;;;;;;5047182;28;20037;-76
2022/04/30 14:39:28;;;;;;;6.22;1.20;;;;;;;;;;5055193;28;20036;-76
2022/04/30 14:41:54;;;;;;;6.25;1.33;;;;;;;;;;5047046;28;20029;-76
2022/04/30 14:44:20;;;;;;;6.45;1.30;;;;;;;;;;5048710;28;20060;-75
2022/04/30 14:46:46;;;;;;;8.68;1.35;;;;;;;;;;5050246;28;20048;-76
2022/04/30 14:49:12;;;;;;;7.35;1.35;;;;;;;;;;5044229;28;20467;-76
2022/04/30 14:51:39;;;;;;;6.95;1.33;;;;;;;;;;5048843;28;20111;-76
2022/04/30 14:54:05;;;;;;;5.95;1.17;;;;;;;;;;5048361;28;20139;-76
2022/04/30 14:56:31;;;;;;;10.57;1.33;;;;;;;;;;5049901;28;20589;-76
2022/04/30 14:58:57;;;;;;;7.50;1.38;;;;;;;;;;5044619;28;20041;-76
2022/04/30 15:01:23;;;;;;;6.38;1.52;;;;;;;;;;5039311;28;20029;-76
2022/04/30 15:03:49;;;;;;;6.57;1.25;;;;;;;;;;5039928;28;20619;-76
2022/04/30 15:06:15;;;;;;;5.18;1.27;;;;;;;;;;5044943;28;20133;-76
2022/04/30 15:08:41;;;;;;;4.65;1.63;;;;;;;;;;5028129;28;20796;-76
2022/04/30 15:11:07;;;;;;;5.80;1.65;;;;;;;;;;5049649;28;20040;-76
2022/04/30 15:13:33;;;;;;;3.97;1.30;;;;;;;;;;5046183;28;20037;-76
2022/04/30 15:15:59;;;;;;;7.18;1.40;;;;;;;;;;5050316;28;20064;-76
2022/04/30 15:18:27;;;;;;;4.45;1.40;;;;;;;;;;5048427;28;20055;-76
2022/04/30 15:20:53;;;;;;;5.68;1.30;;;;;;;;;;5049354;28;20454;-76
2022/04/30 15:23:19;;;;;;;11.15;1.42;;;;;;;;;;5043235;28;20119;-76
2022/04/30 15:25:52;;;;;;;5.45;1.15;;;;;;;;;;5053461;28;20437;-76
2022/04/30 15:28:18;;;;;;;3.78;1.30;;;;;;;;;;5047030;28;20037;-76